Time;durP1;ratioP1;P1;durP2;ratioP2;P2;SDS_P1;SDS_P2;PMS_P1;PMS_P2;Temp;Humidity;BMP_temperature;BMP_pressure;BME280_temperature;BME280_humidity;BME280_pressure;Samples;Min_cycle;Max_cycle;Signal;HPM_P1;HPM_P2
2022/03/20 00:00:36;;;;;;;47.03;24.75;;;;;;;2.79;75.58;97552.38;5003091;28;20080;-65
2022/03/20 00:03:07;;;;;;;48.47;25.42;;;;;;;2.78;75.32;97564.31;4998066;28;20049;-67
2022/03/20 00:05:38;;;;;;;49.33;25.73;;;;;;;2.71;76.34;97566.56;4995945;28;20061;-66
2022/03/20 00:08:12;;;;;;;50.90;25.30;;;;;;;2.63;76.41;97574.25;5008049;28;20538;-66
2022/03/20 00:10:47;;;;;;;47.85;25.73;;;;;;;2.61;76.99;97570.22;5011145;28;20029;-65
2022/03/20 00:13:18;;;;;;;52.28;25.17;;;;;;;2.61;77.16;97576.47;5010775;28;20565;-67
2022/03/20 00:15:46;;;;;;;47.20;25.20;;;;;;;2.62;76.98;97574.53;5010734;28;20171;-67
2022/03/20 00:18:14;;;;;;;48.20;24.10;;;;;;;2.59;77.62;97575.13;5010686;28;20066;-65
2022/03/20 00:20:51;;;;;;;47.17;25.30;;;;;;;2.62;77.04;97577.25;5011293;28;20030;-66
2022/03/20 00:23:17;;;;;;;44.97;25.50;;;;;;;2.73;76.18;97575.19;5010814;28;20496;-65
2022/03/20 00:25:44;;;;;;;50.58;25.63;;;;;;;2.81;75.74;97577.22;5023942;28;20041;-65
2022/03/20 00:28:11;;;;;;;49.65;24.73;;;;;;;2.75;76.49;97567.59;5031071;28;20033;-66
2022/03/20 00:30:37;;;;;;;50.95;24.70;;;;;;;2.78;76.42;97573.22;5034079;28;20440;-64
2022/03/20 00:33:04;;;;;;;49.28;24.95;;;;;;;2.79;76.08;97563.19;5036096;28;20047;-67
2022/03/20 00:35:30;;;;;;;46.78;26.00;;;;;;;2.81;76.28;97561.81;5035793;28;20034;-69
2022/03/20 00:37:56;;;;;;;49.22;24.92;;;;;;;2.81;76.48;97569.09;5035800;28;20059;-68
2022/03/20 00:40:22;;;;;;;52.55;24.88;;;;;;;2.83;76.46;97581.25;5025882;28;20494;-67
2022/03/20 00:42:47;;;;;;;46.95;25.02;;;;;;;2.90;75.62;97580.88;5014369;28;20525;-67
2022/03/20 00:45:13;;;;;;;49.08;24.35;;;;;;;3.13;74.41;97578.34;5013172;28;20087;-66
2022/03/20 00:47:38;;;;;;;49.70;24.25;;;;;;;3.22;74.36;97581.97;5014115;28;20033;-66
2022/03/20 00:50:04;;;;;;;48.50;24.77;;;;;;;3.33;74.80;97582.59;5013739;28;20029;-68
2022/03/20 00:52:32;;;;;;;52.72;25.20;;;;;;;3.45;74.26;97582.94;5014040;28;20502;-69
2022/03/20 00:54:58;;;;;;;50.33;24.73;;;;;;;3.47;74.38;97588.84;5013959;28;20104;-66
2022/03/20 00:57:24;;;;;;;46.47;25.38;;;;;;;3.41;74.52;97598.19;5013845;28;20034;-65
2022/03/20 00:59:49;;;;;;;45.75;24.98;;;;;;;3.44;74.56;97601.09;5010868;28;20033;-66
2022/03/20 01:02:15;;;;;;;42.15;22.75;;;;;;;3.42;74.69;97597.06;5010194;28;20533;-67
2022/03/20 01:04:41;;;;;;;49.45;26.25;;;;;;;3.39;74.92;97598.47;5007723;28;20022;-67
2022/03/20 01:07:07;;;;;;;44.22;23.55;;;;;;;3.24;74.93;97598.72;5010555;28;20164;-69
2022/03/20 01:09:32;;;;;;;45.63;24.05;;;;;;;3.24;75.83;97598.72;5013151;28;20100;-67
2022/03/20 01:11:58;;;;;;;46.83;23.45;;;;;;;3.24;75.83;97591.41;5013745;28;20566;-65
2022/03/20 01:14:25;;;;;;;49.05;25.08;;;;;;;3.27;75.50;97598.13;5012645;28;20029;-65
2022/03/20 01:16:54;;;;;;;45.85;24.20;;;;;;;3.29;75.42;97604.06;5005431;28;20030;-67
2022/03/20 01:19:23;;;;;;;53.53;23.90;;;;;;;3.09;75.89;97593.56;5011848;28;20151;-65
2022/03/20 01:21:50;;;;;;;50.83;24.73;;;;;;;2.93;76.03;97604.63;5009084;28;20145;-68
2022/03/20 01:24:15;;;;;;;40.85;22.23;;;;;;;2.84;77.56;97599.06;5011816;28;20066;-67
2022/03/20 01:26:41;;;;;;;46.35;22.90;;;;;;;2.85;77.18;97608.03;5011588;28;20034;-67
2022/03/20 01:29:07;;;;;;;48.88;24.60;;;;;;;2.62;78.93;97609.72;5012009;28;20398;-66
2022/03/20 01:31:36;;;;;;;44.80;23.52;;;;;;;2.48;80.09;97602.34;5012026;28;20030;-67
2022/03/20 01:34:03;;;;;;;47.28;23.92;;;;;;;2.34;80.21;97604.16;5013505;28;20061;-65
2022/03/20 01:36:29;;;;;;;42.47;21.75;;;;;;;2.32;80.06;97605.50;5013045;28;20034;-65
2022/03/20 01:38:55;;;;;;;47.60;23.58;;;;;;;2.43;80.78;97615.91;5012814;28;20057;-66
2022/03/20 01:41:21;;;;;;;45.40;23.35;;;;;;;2.59;79.83;97613.00;5011885;28;20100;-65
2022/03/20 01:43:52;;;;;;;44.40;22.98;;;;;;;2.61;79.91;97605.38;5012257;28;20037;-66
2022/03/20 01:46:18;;;;;;;44.67;23.38;;;;;;;2.56;79.53;97600.88;5019570;28;20037;-66
2022/03/20 01:48:45;;;;;;;40.35;22.25;;;;;;;2.52;79.52;97610.66;5011339;28;20038;-66
2022/03/20 01:51:11;;;;;;;47.58;24.83;;;;;;;2.40;80.26;97604.88;5011575;28;20034;-66
2022/03/20 01:53:37;;;;;;;46.33;23.15;;;;;;;2.43;80.96;97597.00;5012200;28;20040;-65
2022/03/20 01:56:04;;;;;;;44.65;22.65;;;;;;;2.39;80.98;97605.97;5002441;28;20034;-65
2022/03/20 01:58:32;;;;;;;44.05;24.58;;;;;;;2.30;81.74;97611.22;5012395;28;20046;-67
2022/03/20 02:00:57;;;;;;;39.97;21.23;;;;;;;2.15;82.21;97609.50;5011385;28;20434;-66
2022/03/20 02:03:23;;;;;;;50.22;25.52;;;;;;;2.03;83.27;97609.91;5009257;28;20112;-65
2022/03/20 02:05:48;;;;;;;44.40;23.42;;;;;;;1.89;82.93;97607.13;5011181;28;20036;-66
2022/03/20 02:08:15;;;;;;;49.63;23.38;;;;;;;1.95;84.51;97607.06;5010352;28;20116;-65
2022/03/20 02:10:43;;;;;;;43.05;23.73;;;;;;;1.89;83.29;97609.81;5009385;28;20026;-65
2022/03/20 02:13:09;;;;;;;41.42;22.85;;;;;;;1.79;83.24;97612.63;5005286;28;20092;-67
2022/03/20 02:15:36;;;;;;;42.00;22.42;;;;;;;1.76;84.13;97615.09;4999109;28;20042;-66
2022/03/20 02:18:03;;;;;;;43.35;22.02;;;;;;;1.64;83.20;97618.19;5007171;28;20036;-65
2022/03/20 02:20:29;;;;;;;47.80;23.00;;;;;;;1.58;84.76;97612.03;5010764;28;20030;-65
2022/03/20 02:22:55;;;;;;;47.20;24.20;;;;;;;1.45;86.60;97613.50;5011519;28;20545;-67
2022/03/20 02:25:20;;;;;;;42.53;22.85;;;;;;;1.32;86.37;97611.50;5010979;28;20128;-69
2022/03/20 02:27:47;;;;;;;48.42;23.17;;;;;;;1.18;87.77;97611.34;5010576;28;20433;-65
2022/03/20 02:30:16;;;;;;;45.97;23.60;;;;;;;0.95;90.10;97612.84;5011069;28;20814;-64
2022/03/20 02:32:47;;;;;;;46.13;23.77;;;;;;;0.92;90.70;97610.75;5009865;28;20116;-66
2022/03/20 02:35:15;;;;;;;44.13;23.13;;;;;;;0.86;89.30;97609.94;5007701;28;20043;-65
2022/03/20 02:37:43;;;;;;;41.80;21.92;;;;;;;0.79;88.80;97608.66;5010385;28;20084;-64
2022/03/20 02:40:09;;;;;;;51.10;22.65;;;;;;;0.79;89.50;97609.47;5001505;28;20050;-65
2022/03/20 02:42:37;;;;;;;44.08;24.42;;;;;;;0.72;88.42;97614.38;4999339;28;20042;-64
2022/03/20 02:45:10;;;;;;;44.53;23.33;;;;;;;0.63;88.95;97610.66;4999931;28;20097;-66
2022/03/20 02:47:42;;;;;;;46.83;23.58;;;;;;;0.67;90.46;97611.72;5011022;28;20030;-66
2022/03/20 02:50:19;;;;;;;41.35;22.48;;;;;;;0.79;91.93;97614.06;5010787;28;20026;-67
2022/03/20 02:52:47;;;;;;;50.47;23.73;;;;;;;0.87;92.42;97611.56;5006975;28;20034;-67
2022/03/20 02:55:19;;;;;;;44.85;22.63;;;;;;;0.99;91.73;97622.03;5007077;28;20084;-66
2022/03/20 02:57:45;;;;;;;46.67;23.48;;;;;;;1.10;91.33;97623.53;5010118;28;20049;-67
2022/03/20 03:00:11;;;;;;;43.88;22.20;;;;;;;0.95;90.91;97619.09;5011584;28;20017;-66
2022/03/20 03:02:43;;;;;;;53.00;23.45;;;;;;;0.81;92.77;97622.66;5010745;28;20038;-66
2022/03/20 03:05:13;;;;;;;45.10;24.10;;;;;;;0.70;92.35;97622.75;5010313;28;20080;-67
2022/03/20 03:13:11;;;;;;;44.33;23.50;;;;;;;0.37;96.22;97626.97;5006994;28;20030;-66
2022/03/20 03:15:36;;;;;;;46.80;23.42;;;;;;;0.45;97.28;97617.50;5010921;28;20100;-66
2022/03/20 03:18:03;;;;;;;46.90;23.73;;;;;;;0.51;96.55;97635.28;5001918;28;20129;-69
2022/03/20 03:20:29;;;;;;;46.13;24.15;;;;;;;0.67;96.64;97639.50;5007859;28;20026;-67
2022/03/20 03:22:55;;;;;;;47.50;25.10;;;;;;;0.78;95.39;97632.13;5007956;28;20124;-68
2022/03/20 03:25:22;;;;;;;44.00;22.65;;;;;;;0.76;95.53;97631.63;5008994;28;20037;-71
2022/03/20 03:27:48;;;;;;;51.20;24.92;;;;;;;0.35;97.15;97629.16;5003480;28;20026;-67
2022/03/20 03:30:14;;;;;;;47.33;24.50;;;;;;;0.11;99.62;97634.38;5001365;28;20031;-65
2022/03/20 03:32:41;;;;;;;47.63;24.73;;;;;;;0.07;100.00;97641.41;5008963;28;20058;-67
2022/03/20 03:37:55;;;;;;;50.47;24.67;;;;;;;0.22;100.00;97643.22;5005488;28;20029;-67
2022/03/20 03:40:21;;;;;;;51.88;24.55;;;;;;;0.42;100.00;97642.34;5008300;28;20033;-68
2022/03/20 03:42:46;;;;;;;44.90;23.65;;;;;;;0.56;99.08;97635.25;5006669;28;20037;-65
2022/03/20 03:45:12;;;;;;;49.90;24.08;;;;;;;0.54;97.50;97632.00;5009272;28;20371;-66
2022/03/20 03:47:40;;;;;;;49.10;24.83;;;;;;;0.48;96.83;97649.31;5003352;28;20026;-66
2022/03/20 03:50:07;;;;;;;46.15;24.10;;;;;;;0.58;97.80;97649.25;5007341;28;20037;-66
2022/03/20 03:52:32;;;;;;;46.08;24.25;;;;;;;0.45;97.65;97649.84;4998687;28;20558;-65
2022/03/20 03:54:58;;;;;;;43.97;23.10;;;;;;;0.32;98.46;97656.66;5006432;28;20112;-66
2022/03/20 03:57:23;;;;;;;49.63;23.05;;;;;;;0.12;99.11;97646.78;5002369;28;20494;-65
2022/03/20 03:59:49;;;;;;;48.13;24.77;;;;;;;-0.02;99.47;97652.75;5009201;28;20030;-65
2022/03/20 04:02:15;;;;;;;46.85;24.65;;;;;;;-0.07;100.00;97655.47;5002066;28;20122;-65
2022/03/20 04:04:41;;;;;;;45.47;24.85;;;;;;;0.02;100.00;97652.19;5005319;28;20030;-65
2022/03/20 04:07:08;;;;;;;48.78;24.90;;;;;;;0.06;100.00;97645.97;5003788;28;20026;-65
2022/03/20 04:09:35;;;;;;;50.92;24.52;;;;;;;0.12;100.00;97649.47;5017663;28;20049;-65
2022/03/20 04:12:02;;;;;;;48.10;24.33;;;;;;;0.26;100.00;97647.78;5017282;28;20030;-64
2022/03/20 04:14:28;;;;;;;47.97;23.15;;;;;;;0.37;99.29;97645.84;5014019;28;20058;-65
2022/03/20 04:16:54;;;;;;;40.88;21.80;;;;;;;0.30;98.60;97658.81;5014290;28;20034;-65
2022/03/20 04:19:20;;;;;;;42.08;21.85;;;;;;;0.30;98.58;97658.81;5012865;28;20104;-68
2022/03/20 04:21:45;;;;;;;42.20;21.83;;;;;;;0.34;97.60;97660.69;5012368;28;20052;-66
2022/03/20 04:24:11;;;;;;;45.92;23.80;;;;;;;0.21;97.23;97672.06;5010292;28;20034;-66
2022/03/20 04:26:37;;;;;;;43.13;22.38;;;;;;;0.06;98.26;97670.22;5010123;28;20050;-66
2022/03/20 04:29:02;;;;;;;40.13;21.90;;;;;;;0.10;99.36;97690.13;5012410;28;20545;-66
2022/03/20 04:31:28;;;;;;;41.78;22.95;;;;;;;-0.33;100.00;97670.06;5009772;28;20479;-67
2022/03/20 04:33:54;;;;;;;51.53;24.23;;;;;;;-0.87;100.00;97672.22;5001362;28;20030;-67
2022/03/20 04:36:22;;;;;;;47.45;22.95;;;;;;;-0.85;100.00;97688.09;5012681;28;20053;-67
2022/03/20 04:38:49;;;;;;;45.38;23.48;;;;;;;-0.66;100.00;97688.38;5013227;28;20033;-67
2022/03/20 04:41:15;;;;;;;47.53;23.35;;;;;;;-0.75;100.00;97684.63;5005961;28;20532;-66
2022/03/20 04:43:40;;;;;;;56.75;28.17;;;;;;;-1.19;100.00;97673.28;5014411;28;20121;-66
2022/03/20 04:46:06;;;;;;;57.63;26.65;;;;;;;-1.50;100.00;97677.78;5013269;28;20120;-66
2022/03/20 04:59:27;;;;;;;49.10;25.02;;;;;;;-1.00;100.00;97683.53;5006237;28;20088;-65
2022/03/20 05:01:53;;;;;;;53.65;24.52;;;;;;;-1.07;100.00;97688.34;5012069;28;20041;-66
2022/03/20 05:04:18;;;;;;;45.90;24.10;;;;;;;-0.94;100.00;97705.84;5008379;28;20037;-67
2022/03/20 05:06:44;;;;;;;49.50;23.65;;;;;;;-0.88;100.00;97700.22;5011300;28;20056;-66
2022/03/20 05:14:38;;;;;;;46.60;24.83;;;;;;;-0.93;100.00;97702.09;5013103;28;20026;-65
2022/03/20 05:17:08;;;;;;;51.92;24.33;;;;;;;-1.04;100.00;97720.09;5008550;28;20058;-67
2022/03/20 05:19:38;;;;;;;51.65;24.60;;;;;;;-1.09;100.00;97712.81;5000012;28;20026;-67
2022/03/20 05:22:04;;;;;;;;;;;;;;;-1.25;100.00;97724.63;5012647;28;20049;-66
2022/03/20 05:24:30;;;;;;;47.45;23.75;;;;;;;-1.08;100.00;97727.88;5011820;28;19913;-67
2022/03/20 05:26:55;;;;;;;52.88;24.30;;;;;;;-1.09;100.00;97707.44;5004670;28;20117;-66
2022/03/20 05:29:22;;;;;;;44.72;24.48;;;;;;;-1.02;100.00;97728.72;5017707;28;20064;-66
2022/03/20 05:31:49;;;;;;;52.05;25.60;;;;;;;-0.75;100.00;97716.91;5014720;28;20026;-66
2022/03/20 05:34:16;;;;;;;48.90;24.25;;;;;;;-0.78;100.00;97727.09;5007513;28;20513;-66
2022/03/20 05:36:43;;;;;;;49.47;24.05;;;;;;;-0.66;100.00;97726.84;5009075;28;20499;-67
2022/03/20 05:39:08;;;;;;;50.45;22.92;;;;;;;-0.48;100.00;97716.66;5008813;28;20030;-67
2022/03/20 05:41:46;;;;;;;47.05;23.58;;;;;;;-0.48;100.00;97722.03;5010201;28;20497;-66
2022/03/20 05:44:12;;;;;;;48.17;24.10;;;;;;;-0.31;100.00;97721.72;5009670;28;20107;-66
2022/03/20 05:46:40;;;;;;;43.40;23.02;;;;;;;-0.41;100.00;97717.19;5009145;28;20030;-66
2022/03/20 05:49:06;;;;;;;46.08;23.88;;;;;;;-0.22;100.00;97729.00;5010843;28;20390;-66
2022/03/20 05:51:34;;;;;;;48.08;23.75;;;;;;;-0.03;98.56;97726.53;5005392;28;20124;-66
2022/03/20 05:54:03;;;;;;;47.70;25.02;;;;;;;-0.45;100.00;97726.84;5011484;28;20164;-66
2022/03/20 05:59:13;;;;;;;42.33;22.73;;;;;;;0.65;98.23;97732.50;5003091;28;20026;-67
2022/03/20 06:01:39;;;;;;;48.33;23.20;;;;;;;0.61;94.28;97731.47;5009097;28;20049;-67
2022/03/20 06:04:06;;;;;;;46.50;23.15;;;;;;;0.89;94.38;97746.97;5003708;28;20049;-67
2022/03/20 06:06:32;;;;;;;46.42;23.13;;;;;;;1.53;91.06;97750.59;4995627;28;20395;-67
2022/03/20 06:08:58;;;;;;;42.47;22.00;;;;;;;1.42;88.12;97745.56;5009778;28;20049;-66
2022/03/20 06:11:23;;;;;;;39.30;22.30;;;;;;;2.09;86.76;97760.13;5005191;28;20069;-67
2022/03/20 06:13:48;;;;;;;37.50;20.70;;;;;;;2.84;82.86;97766.03;5012533;28;20076;-67
2022/03/20 06:16:14;;;;;;;35.80;20.23;;;;;;;3.32;78.74;97757.81;5009191;28;20422;-66
2022/03/20 06:18:42;;;;;;;38.65;21.00;;;;;;;3.79;75.53;97758.69;5004333;28;20036;-67
2022/03/20 06:21:11;;;;;;;39.95;20.52;;;;;;;3.76;74.28;97764.75;5008284;28;20034;-67
2022/03/20 06:23:38;;;;;;;36.47;20.67;;;;;;;2.89;77.88;97757.84;4999496;28;20497;-67
2022/03/20 06:26:04;;;;;;;37.70;20.83;;;;;;;2.95;82.32;97766.72;5010238;28;20387;-67
2022/03/20 06:28:30;;;;;;;35.25;19.42;;;;;;;3.60;76.37;97771.47;5010378;28;20021;-67
2022/03/20 06:30:55;;;;;;;52.78;21.60;;;;;;;1.58;85.69;97767.84;5012388;28;20029;-66
2022/03/20 06:33:21;;;;;;;39.85;22.23;;;;;;;1.07;92.16;97774.41;5005591;28;20022;-66
2022/03/20 06:35:47;;;;;;;41.50;21.83;;;;;;;1.48;87.24;97774.16;5007331;28;20041;-66
2022/03/20 06:38:12;;;;;;;50.15;25.08;;;;;;;0.30;94.06;97783.56;5007925;28;20316;-67
2022/03/20 06:40:38;;;;;;;40.60;21.67;;;;;;;0.69;95.65;97784.81;5002075;28;20041;-66
2022/03/20 06:43:05;;;;;;;45.95;22.10;;;;;;;1.19;90.48;97779.44;5003535;28;20036;-66
2022/03/20 06:45:30;;;;;;;45.15;23.70;;;;;;;0.26;95.27;97787.09;5002691;28;20127;-66
2022/03/20 06:47:59;;;;;;;44.47;23.40;;;;;;;0.65;95.63;97797.22;5008037;28;20113;-66
2022/03/20 06:50:24;;;;;;;46.75;22.80;;;;;;;1.05;92.47;97790.06;5008415;28;20479;-66
2022/03/20 06:52:50;;;;;;;47.20;24.05;;;;;;;1.18;92.38;97789.44;5009447;28;20037;-67
2022/03/20 06:55:16;;;;;;;42.20;22.95;;;;;;;1.71;89.51;97797.72;5004962;28;20095;-66
2022/03/20 06:57:43;;;;;;;46.83;22.25;;;;;;;2.13;85.84;97790.09;5010373;28;20038;-65
2022/03/20 07:00:10;;;;;;;42.60;22.45;;;;;;;1.25;89.95;97802.63;5003390;28;20089;-66
2022/03/20 07:02:36;;;;;;;46.67;25.88;;;;;;;1.52;89.86;97804.88;5008375;28;20520;-66
2022/03/20 07:05:01;;;;;;;55.30;28.52;;;;;;;0.50;94.80;97792.69;5003985;28;20109;-66
2022/03/20 07:07:27;;;;;;;56.33;27.27;;;;;;;1.21;94.70;97796.19;5010020;28;20030;-66
2022/03/20 07:09:53;;;;;;;46.83;24.95;;;;;;;1.94;90.03;97795.38;5003633;28;20088;-66
2022/03/20 07:12:19;;;;;;;50.85;25.30;;;;;;;1.29;92.53;97796.38;5001888;28;20033;-66
2022/03/20 07:14:45;;;;;;;46.20;25.10;;;;;;;2.70;87.80;97794.88;5004846;28;20116;-66
2022/03/20 07:17:12;;;;;;;53.55;30.70;;;;;;;3.60;78.52;97798.56;5000131;28;20507;-66
2022/03/20 07:19:42;;;;;;;39.58;21.83;;;;;;;4.10;76.80;97803.47;5008893;28;20537;-67
2022/03/20 07:22:08;;;;;;;41.08;23.67;;;;;;;4.65;74.82;97794.63;5011585;28;20121;-66
2022/03/20 07:24:34;;;;;;;42.58;23.65;;;;;;;5.09;74.37;97806.78;5011299;28;20597;-67
2022/03/20 07:29:44;;;;;;;38.10;20.27;;;;;;;7.92;62.64;97814.59;5004767;28;20061;-67
2022/03/20 07:32:09;;;;;;;37.53;19.80;;;;;;;8.41;58.05;97807.00;5001034;28;20045;-67
2022/03/20 07:34:37;;;;;;;34.15;19.98;;;;;;;8.68;57.82;97809.66;5007103;28;20033;-67
2022/03/20 07:37:04;;;;;;;35.90;19.58;;;;;;;8.47;57.67;97815.06;5006312;28;20485;-67
2022/03/20 07:39:30;;;;;;;36.42;20.02;;;;;;;9.92;53.70;97804.75;5001487;28;20675;-67
2022/03/20 07:41:57;;;;;;;31.13;19.05;;;;;;;10.48;50.71;97800.88;5011040;28;20409;-67
2022/03/20 07:44:23;;;;;;;31.52;18.40;;;;;;;10.60;50.39;97811.03;5002077;28;20034;-67
2022/03/20 07:46:49;;;;;;;33.53;19.00;;;;;;;10.89;49.26;97805.38;5001959;28;20037;-67
2022/03/20 07:49:15;;;;;;;28.73;18.00;;;;;;;12.07;45.42;97815.63;5009944;28;20022;-67
2022/03/20 07:51:42;;;;;;;29.73;17.70;;;;;;;11.90;44.65;97807.66;5013533;28;20486;-67
2022/03/20 07:54:08;;;;;;;33.95;19.20;;;;;;;12.03;45.72;97815.53;5012631;28;20033;-67
2022/03/20 07:56:36;;;;;;;29.60;17.80;;;;;;;12.81;43.38;97810.53;5009526;28;20037;-67
2022/03/20 07:59:05;;;;;;;33.17;18.80;;;;;;;13.20;41.08;97812.66;5005172;28;20033;-67
2022/03/20 08:01:33;;;;;;;28.38;17.23;;;;;;;12.70;43.77;97814.19;5013458;28;20045;-67
2022/03/20 08:03:58;;;;;;;28.23;18.40;;;;;;;13.95;39.97;97816.31;5013013;28;20042;-67
2022/03/20 08:06:24;;;;;;;26.38;17.95;;;;;;;14.76;38.33;97812.78;5013657;28;20076;-67
2022/03/20 08:08:49;;;;;;;30.13;19.27;;;;;;;15.34;36.38;97816.47;5003498;28;20026;-67
2022/03/20 08:11:15;;;;;;;27.02;16.48;;;;;;;15.83;35.61;97815.66;5004397;28;20034;-67
2022/03/20 08:13:43;;;;;;;28.55;17.55;;;;;;;15.83;36.02;97815.66;5014908;28;20056;-67
2022/03/20 08:16:12;;;;;;;28.98;17.15;;;;;;;16.00;35.64;97811.53;5014401;28;20422;-67
2022/03/20 08:18:37;;;;;;;27.55;17.77;;;;;;;16.52;34.46;97817.25;5011799;28;20041;-67
2022/03/20 08:21:03;;;;;;;25.13;16.77;;;;;;;16.03;34.24;97821.81;5003494;28;20065;-67
2022/03/20 08:23:28;;;;;;;27.75;18.58;;;;;;;16.02;34.94;97809.16;5002247;28;20452;-67
2022/03/20 08:25:54;;;;;;;29.77;18.25;;;;;;;16.11;34.11;97800.59;5004435;28;20037;-67
2022/03/20 08:28:19;;;;;;;32.33;20.17;;;;;;;15.58;35.15;97807.00;5011883;28;20065;-67
2022/03/20 08:30:44;;;;;;;29.90;18.40;;;;;;;13.61;37.50;97813.22;5010247;28;20034;-67
2022/03/20 08:33:10;;;;;;;29.17;18.98;;;;;;;15.37;34.81;97802.72;5007430;28;20114;-66
2022/03/20 08:35:35;;;;;;;34.75;18.65;;;;;;;14.47;36.29;97809.47;5010955;28;20038;-67
2022/03/20 08:38:03;;;;;;;29.83;18.45;;;;;;;14.71;35.84;97811.13;5012054;28;20538;-67
2022/03/20 08:40:28;;;;;;;31.23;19.00;;;;;;;13.96;37.66;97804.16;5006490;28;20026;-68
2022/03/20 08:42:55;;;;;;;31.92;17.92;;;;;;;15.49;35.57;97799.75;5013152;28;20100;-67
2022/03/20 08:45:29;;;;;;;27.23;18.80;;;;;;;14.29;37.96;97791.81;5012926;28;20116;-67
2022/03/20 08:47:55;;;;;;;29.83;18.23;;;;;;;15.48;34.97;97805.66;5014291;28;20057;-67
2022/03/20 08:50:21;;;;;;;29.50;18.38;;;;;;;17.18;32.59;97810.00;5008767;28;20050;-67
2022/03/20 08:52:48;;;;;;;31.13;18.70;;;;;;;17.74;31.52;97802.47;5006626;28;20441;-67
2022/03/20 08:55:15;;;;;;;29.42;18.17;;;;;;;18.12;30.77;97797.53;5012345;28;20080;-67
2022/03/20 08:57:43;;;;;;;27.15;17.73;;;;;;;18.00;30.14;97802.63;5012182;28;20418;-67
2022/03/20 09:00:13;;;;;;;26.60;18.73;;;;;;;17.39;31.71;97812.16;5009431;28;20364;-67
2022/03/20 09:02:39;;;;;;;28.00;18.10;;;;;;;17.77;31.04;97809.19;5001521;28;20026;-67
2022/03/20 09:05:05;;;;;;;27.00;18.38;;;;;;;17.93;30.71;97811.69;5007884;28;20394;-67
2022/03/20 09:07:31;;;;;;;28.65;18.38;;;;;;;16.29;32.82;97817.41;5008763;28;20027;-67
2022/03/20 09:09:56;;;;;;;30.10;18.27;;;;;;;17.71;31.16;97808.75;5006199;28;20156;-67
2022/03/20 09:12:22;;;;;;;28.45;18.48;;;;;;;17.05;32.17;97808.72;5009974;28;20723;-67
2022/03/20 09:14:48;;;;;;;27.73;17.70;;;;;;;15.85;33.98;97810.53;5001087;28;20037;-67
2022/03/20 09:19:57;;;;;;;32.53;18.80;;;;;;;17.56;31.56;97802.34;5009278;28;20033;-67
2022/03/20 09:22:25;;;;;;;29.92;18.98;;;;;;;17.67;31.18;97802.41;5004555;28;20669;-67
2022/03/20 09:24:51;;;;;;;32.70;19.10;;;;;;;17.83;30.96;97804.88;5008726;28;20026;-67
2022/03/20 09:27:16;;;;;;;28.92;18.30;;;;;;;17.06;31.84;97807.53;5004703;28;20832;-67
2022/03/20 09:29:42;;;;;;;31.48;18.38;;;;;;;16.99;32.20;97805.47;5003412;28;20037;-67
2022/03/20 09:32:08;;;;;;;28.95;18.73;;;;;;;17.27;32.10;97817.16;5010745;28;20025;-67
2022/03/20 09:34:34;;;;;;;31.67;19.02;;;;;;;18.20;30.86;97806.66;5007771;28;20344;-67
2022/03/20 09:37:00;;;;;;;32.08;19.05;;;;;;;18.80;29.63;97808.00;5009977;28;20040;-67
2022/03/20 09:39:26;;;;;;;27.88;18.60;;;;;;;16.35;32.27;97805.63;5005007;28;20026;-67
2022/03/20 09:41:55;;;;;;;30.05;18.67;;;;;;;18.36;30.62;97806.31;5009010;28;20689;-67
2022/03/20 09:44:24;;;;;;;29.83;18.83;;;;;;;18.99;29.57;97804.06;5012737;28;20486;-67
2022/03/20 09:46:51;;;;;;;;;;;;;;;18.58;30.06;97809.94;5011899;28;20038;-69
2022/03/20 09:49:18;;;;;;;28.10;18.77;;;;;;;18.24;30.15;97813.03;5012143;28;19922;-67
2022/03/20 09:51:43;;;;;;;35.92;20.95;;;;;;;18.48;29.47;97807.94;5017180;28;20113;-67
2022/03/20 09:54:13;;;;;;;28.80;19.23;;;;;;;19.12;28.20;97812.81;5017761;28;20090;-67
2022/03/20 09:56:40;;;;;;;27.85;17.95;;;;;;;16.23;31.78;97814.97;5002274;28;20033;-66
2022/03/20 09:59:07;;;;;;;29.08;18.23;;;;;;;16.17;33.09;97818.44;5014202;28;20068;-66
2022/03/20 10:01:33;;;;;;;28.15;17.00;;;;;;;17.18;31.56;97817.53;5003741;28;20061;-66
2022/03/20 10:04:10;;;;;;;27.40;17.90;;;;;;;16.63;32.46;97815.41;5010339;28;20038;-67
2022/03/20 10:06:37;;;;;;;25.55;17.42;;;;;;;18.45;30.26;97811.50;5005742;28;20483;-66
2022/03/20 10:09:05;;;;;;;31.95;18.73;;;;;;;18.19;29.66;97815.38;5010902;28;20038;-66
2022/03/20 10:11:32;;;;;;;27.48;17.27;;;;;;;18.93;29.44;97804.88;5012436;28;20382;-67
2022/03/20 10:14:20;;;;;;;27.10;17.08;;;;;;;19.61;28.48;97805.63;5012800;28;20034;-67
2022/03/20 10:16:54;;;;;;;28.73;17.02;;;;;;;20.48;27.11;97806.16;5011951;28;20095;-67
2022/03/20 10:19:22;;;;;;;30.08;18.35;;;;;;;19.55;27.67;97817.56;5011437;28;20037;-67
2022/03/20 10:22:04;;;;;;;26.35;17.63;;;;;;;19.87;27.29;97814.72;5019210;28;20084;-67
2022/03/20 10:24:31;;;;;;;25.88;17.45;;;;;;;20.56;26.56;97809.69;5004518;28;20034;-67
2022/03/20 10:27:00;;;;;;;29.95;16.75;;;;;;;20.62;26.05;97805.31;5011053;28;20113;-66
2022/03/20 10:29:29;;;;;;;24.27;16.55;;;;;;;20.56;26.28;97804.91;5000471;28;20090;-66
2022/03/20 10:31:58;;;;;;;27.13;17.38;;;;;;;20.76;25.72;97804.41;5005800;28;20061;-66
2022/03/20 10:34:24;;;;;;;27.08;16.55;;;;;;;20.39;26.15;97805.81;5010412;28;20033;-67
2022/03/20 10:36:50;;;;;;;25.20;16.95;;;;;;;19.92;26.44;97808.75;5010820;28;20084;-66
2022/03/20 10:39:19;;;;;;;26.85;16.77;;;;;;;20.76;25.58;97804.41;5003592;28;20022;-69
2022/03/20 10:41:46;;;;;;;26.13;16.13;;;;;;;20.55;25.11;97802.53;5002979;28;20036;-67
2022/03/20 10:44:17;;;;;;;26.10;16.77;;;;;;;17.91;29.72;97806.53;5011601;28;20781;-69
2022/03/20 10:46:43;;;;;;;26.27;17.05;;;;;;;16.74;30.81;97805.22;5011682;28;20038;-70
2022/03/20 10:49:11;;;;;;;29.25;17.52;;;;;;;17.45;31.00;97806.22;5008147;28;20384;-68
2022/03/20 10:51:41;;;;;;;25.83;17.02;;;;;;;18.96;27.47;97799.34;5010841;28;20113;-67
2022/03/20 10:54:10;;;;;;;26.60;16.27;;;;;;;18.56;28.48;97797.66;5011128;28;20057;-67
2022/03/20 10:56:37;;;;;;;24.98;15.25;;;;;;;17.74;29.68;97796.91;5008224;28;20060;-69
2022/03/20 10:59:14;;;;;;;28.15;16.67;;;;;;;19.31;27.93;97805.28;4992439;28;20069;-72
2022/03/20 11:01:40;;;;;;;26.52;15.27;;;;;;;20.24;28.00;97799.53;4998679;28;20046;-68
2022/03/20 11:04:08;;;;;;;31.52;18.27;;;;;;;18.62;27.75;97802.44;4993794;28;20048;-66
2022/03/20 11:06:35;;;;;;;24.25;15.90;;;;;;;15.98;30.94;97805.56;4999257;28;20046;-68
2022/03/20 11:09:04;;;;;;;25.77;16.52;;;;;;;15.89;30.91;97794.81;5006443;28;20176;-68
2022/03/20 11:11:33;;;;;;;26.73;17.17;;;;;;;15.95;30.88;97796.06;4997288;28;20038;-67
2022/03/20 11:13:59;;;;;;;23.98;15.10;;;;;;;15.11;32.50;97798.00;5006176;28;20076;-67
2022/03/20 11:16:26;;;;;;;26.15;16.38;;;;;;;15.00;32.52;97806.09;4995671;28;20133;-68
2022/03/20 11:18:53;;;;;;;25.52;15.77;;;;;;;15.29;32.01;97792.75;4999312;28;20038;-69
2022/03/20 11:21:24;;;;;;;25.88;15.63;;;;;;;15.32;31.35;97786.47;4996448;28;20038;-67
2022/03/20 11:23:54;;;;;;;23.85;14.15;;;;;;;16.15;31.14;97791.19;5003648;28;20068;-70
2022/03/20 11:26:20;;;;;;;;;;;;;;;17.26;29.18;97782.38;4994593;28;20045;-68
2022/03/20 11:28:48;;;;;;;23.92;13.88;;;;;;;18.39;28.51;97783.34;5001002;28;19913;-69
2022/03/20 11:31:15;;;;;;;23.45;14.00;;;;;;;18.38;26.85;97789.28;4994503;28;20053;-68
2022/03/20 11:33:43;;;;;;;23.65;14.35;;;;;;;19.39;25.81;97791.00;5000949;28;20042;-68
2022/03/20 11:36:08;;;;;;;24.02;13.95;;;;;;;19.51;24.76;97784.22;4995570;28;20393;-68
2022/03/20 11:38:35;;;;;;;29.77;18.20;;;;;;;18.01;31.62;97791.16;5001183;28;20042;-69
2022/03/20 11:41:16;;;;;;;28.38;18.85;;;;;;;17.26;32.67;97785.13;5000420;28;20450;-69
2022/03/20 11:43:44;;;;;;;27.05;17.40;;;;;;;17.77;31.52;97781.47;4993465;28;20456;-69
2022/03/20 11:46:20;;;;;;;27.17;17.83;;;;;;;18.50;30.85;97773.06;4987453;28;20047;-69
2022/03/20 11:49:17;;;;;;;27.67;17.52;;;;;;;18.21;29.66;97771.41;5001147;28;20048;-68
2022/03/20 11:52:01;;;;;;;32.72;17.25;;;;;;;18.64;30.18;97777.84;4997699;28;20050;-67
2022/03/20 11:54:39;;;;;;;31.25;18.05;;;;;;;18.22;30.84;97773.81;4987597;28;20040;-67